Time;durP1;ratioP1;P1;durP2;ratioP2;P2;SDS_P1;SDS_P2;PMS_P1;PMS_P2;Temp;Humidity;BMP_temperature;BMP_pressure;BME280_temperature;BME280_humidity;BME280_pressure;Samples;Min_cycle;Max_cycle;Signal;HPM_P1;HPM_P2
2021/10/21 00:00:24;;;;;;;37.98;21.30;;;;;;;3.18;85.25;98020.29;1799098;79;21427;-75
2021/10/21 00:02:52;;;;;;;35.88;20.92;;;;;;;3.15;85.24;98023.78;1806603;78;21045;-75
2021/10/21 00:05:20;;;;;;;36.42;20.32;;;;;;;3.15;85.23;98021.16;1770314;79;21429;-75
2021/10/21 00:07:47;;;;;;;37.40;20.60;;;;;;;3.09;85.13;98010.69;1813329;79;21500;-75
2021/10/21 00:10:15;;;;;;;40.25;21.80;;;;;;;3.07;84.88;98013.73;1799856;79;21509;-75
2021/10/21 00:12:44;;;;;;;36.65;21.20;;;;;;;2.99;84.59;98013.72;1786355;80;21440;-74
2021/10/21 00:15:11;;;;;;;39.42;20.95;;;;;;;2.94;84.66;98008.92;1786155;80;21018;-74
2021/10/21 00:17:38;;;;;;;38.48;21.85;;;;;;;2.88;84.49;98008.92;1785985;80;20983;-75
2021/10/21 00:20:09;;;;;;;40.73;21.42;;;;;;;2.85;84.41;98004.55;1749043;80;21018;-75
2021/10/21 00:22:37;;;;;;;36.42;21.30;;;;;;;2.77;84.29;97987.53;1762138;80;21035;-75
2021/10/21 00:25:06;;;;;;;38.65;21.77;;;;;;;2.71;84.26;97994.06;1786246;80;20964;-75
2021/10/21 00:27:33;;;;;;;42.98;21.70;;;;;;;2.65;84.36;97987.48;1786652;80;21393;-75
2021/10/21 00:29:59;;;;;;;35.23;20.05;;;;;;;2.63;84.26;97984.86;1759333;80;21006;-75
2021/10/21 00:32:26;;;;;;;36.93;19.40;;;;;;;2.60;84.23;97986.61;1786654;80;20983;-75
2021/10/21 00:34:53;;;;;;;33.42;19.35;;;;;;;2.58;84.35;97985.74;1786404;80;21022;-74
2021/10/21 00:37:20;;;;;;;38.50;20.68;;;;;;;2.57;84.48;97986.63;1753147;82;21055;-75
2021/10/21 00:39:47;;;;;;;41.85;20.32;;;;;;;2.56;84.33;97988.35;1761546;80;21294;-74
2021/10/21 00:42:14;;;;;;;35.78;20.57;;;;;;;2.54;84.35;97977.02;1784980;80;21429;-73
2021/10/21 00:44:42;;;;;;;36.42;20.17;;;;;;;2.50;84.67;97974.81;1769291;80;21010;-74
2021/10/21 00:47:08;;;;;;;32.45;19.05;;;;;;;2.49;85.53;97969.14;1768433;80;20971;-74
2021/10/21 00:49:35;;;;;;;37.93;20.77;;;;;;;2.45;85.85;97965.22;1777211;80;21030;-74
2021/10/21 00:52:04;;;;;;;35.35;19.57;;;;;;;2.42;85.21;97975.25;1781233;80;21503;-74
2021/10/21 00:54:31;;;;;;;34.95;19.32;;;;;;;2.43;84.99;97962.59;1809838;79;21024;-74
2021/10/21 00:56:58;;;;;;;35.83;19.20;;;;;;;2.42;85.22;97960.86;1772072;80;21009;-75
2021/10/21 00:59:28;;;;;;;33.50;18.92;;;;;;;2.42;84.65;97961.28;1792244;79;20996;-75
2021/10/21 01:01:54;;;;;;;36.83;19.10;;;;;;;2.40;85.09;97958.66;1785398;80;21047;-75
2021/10/21 01:04:21;;;;;;;33.95;18.90;;;;;;;2.38;84.60;97944.71;1785068;80;21028;-75
2021/10/21 01:06:47;;;;;;;30.77;17.75;;;;;;;2.35;84.78;97946.89;1785903;80;21036;-74
2021/10/21 01:09:14;;;;;;;31.20;18.30;;;;;;;2.34;84.46;97946.45;1776570;80;21028;-74
2021/10/21 01:11:41;;;;;;;32.38;18.67;;;;;;;2.37;84.44;97942.52;1769681;80;21098;-74
2021/10/21 01:14:09;;;;;;;35.48;19.12;;;;;;;2.36;85.14;97936.86;1806163;79;21008;-74
2021/10/21 01:16:41;;;;;;;31.87;18.75;;;;;;;2.37;85.12;97939.91;1805520;79;21035;-75
2021/10/21 01:19:25;;;;;;;33.88;18.62;;;;;;;2.40;85.19;97931.19;1796144;79;21045;-74
2021/10/21 01:21:55;;;;;;;29.60;17.23;;;;;;;2.43;85.23;97927.70;1783022;80;21534;-74
2021/10/21 01:24:24;;;;;;;31.07;17.15;;;;;;;2.47;85.34;97924.23;1757100;80;21013;-75
2021/10/21 01:26:54;;;;;;;32.10;17.50;;;;;;;2.49;85.17;97915.97;1754768;82;21446;-75
2021/10/21 01:29:23;;;;;;;28.70;17.07;;;;;;;2.47;85.31;97913.77;1782141;79;21066;-74
2021/10/21 01:31:52;;;;;;;31.60;17.67;;;;;;;2.50;85.39;97917.25;1786307;80;22054;-74
2021/10/21 01:34:20;;;;;;;28.27;17.25;;;;;;;2.48;85.24;97901.12;1786290;80;21013;-74
2021/10/21 01:36:53;;;;;;;33.45;16.87;;;;;;;2.43;85.69;97901.55;1786507;80;21490;-74
2021/10/21 01:39:21;;;;;;;33.38;17.17;;;;;;;2.47;85.90;97900.69;1807715;79;22269;-74
2021/10/21 01:41:48;;;;;;;29.80;17.20;;;;;;;2.48;85.70;97898.50;1818363;78;21445;-74
2021/10/21 01:44:16;;;;;;;29.45;16.82;;;;;;;2.46;85.28;97900.26;1818520;78;21011;-75
2021/10/21 01:46:43;;;;;;;33.10;17.35;;;;;;;2.40;85.27;97893.72;1810018;78;21037;-75
2021/10/21 01:49:09;;;;;;;30.52;18.15;;;;;;;2.36;84.95;97895.01;1796028;79;21455;-75
2021/10/21 01:51:37;;;;;;;32.13;17.73;;;;;;;2.30;84.73;97889.77;1790728;78;20980;-75
2021/10/21 01:54:03;;;;;;;27.98;15.63;;;;;;;2.28;84.98;97898.48;1786453;80;20973;-74
2021/10/21 01:56:30;;;;;;;31.80;16.67;;;;;;;2.24;85.11;97895.86;1786324;80;21041;-74
2021/10/21 01:58:56;;;;;;;27.42;15.60;;;;;;;2.19;85.15;97896.28;1786854;79;21000;-74
2021/10/21 02:01:22;;;;;;;29.12;16.12;;;;;;;2.16;84.88;97899.33;1784455;80;21487;-74
2021/10/21 02:03:49;;;;;;;26.85;16.17;;;;;;;2.14;84.98;97894.52;1784823;80;20978;-75
2021/10/21 02:06:16;;;;;;;30.17;15.45;;;;;;;2.07;84.71;97901.45;1784671;80;21065;-75
2021/10/21 02:08:43;;;;;;;29.32;15.75;;;;;;;2.05;84.54;97892.33;1785213;79;20986;-75
2021/10/21 02:11:09;;;;;;;28.75;16.15;;;;;;;2.03;84.75;97892.74;1784765;80;21458;-75
2021/10/21 02:13:36;;;;;;;26.00;15.53;;;;;;;1.99;84.49;97890.98;1774486;80;21435;-75
2021/10/21 02:16:03;;;;;;;26.05;15.38;;;;;;;1.95;84.51;97880.95;1755254;81;21139;-75
2021/10/21 02:18:29;;;;;;;28.80;15.28;;;;;;;1.94;84.58;97889.67;1755464;82;21013;-74
2021/10/21 02:20:55;;;;;;;27.80;14.87;;;;;;;1.86;84.68;97883.99;1817608;79;21029;-74
2021/10/21 02:23:22;;;;;;;27.40;14.60;;;;;;;1.82;85.40;97880.05;1818193;79;20993;-75
2021/10/21 02:25:48;;;;;;;29.80;15.65;;;;;;;1.83;84.60;97880.94;1818707;78;20942;-75
2021/10/21 02:28:15;;;;;;;27.60;15.15;;;;;;;1.81;84.58;97886.57;1817572;79;20989;-75
2021/10/21 02:30:42;;;;;;;26.93;15.40;;;;;;;1.81;84.63;97883.53;1786235;79;21404;-75
2021/10/21 02:33:09;;;;;;;27.62;15.75;;;;;;;1.81;84.52;97886.57;1785809;80;21474;-75
2021/10/21 02:35:35;;;;;;;31.05;15.20;;;;;;;1.77;84.33;97881.77;1786109;80;21060;-75
2021/10/21 02:38:02;;;;;;;24.47;14.33;;;;;;;1.78;84.75;97884.82;1772048;80;21534;-75
2021/10/21 02:40:29;;;;;;;26.25;14.47;;;;;;;1.76;84.72;97878.73;1777741;79;21045;-75
2021/10/21 02:42:55;;;;;;;21.57;13.03;;;;;;;1.77;85.36;97872.63;1785331;80;20998;-74
2021/10/21 02:45:22;;;;;;;25.25;14.00;;;;;;;1.76;86.23;97875.23;1786293;80;21443;-74
2021/10/21 02:47:48;;;;;;;22.22;12.93;;;;;;;1.77;86.18;97880.89;1786214;80;21093;-75
2021/10/21 02:50:15;;;;;;;24.20;12.70;;;;;;;1.79;85.90;97878.72;1805352;79;21017;-74
2021/10/21 02:52:42;;;;;;;24.02;14.20;;;;;;;1.79;85.87;97875.25;1818430;78;20986;-75
2021/10/21 02:55:09;;;;;;;26.97;13.55;;;;;;;1.80;86.05;97870.45;1818202;79;21435;-74
2021/10/21 02:57:36;;;;;;;22.20;13.22;;;;;;;1.80;85.99;97870.04;1817980;79;21006;-74
2021/10/21 03:00:06;;;;;;;25.85;14.15;;;;;;;1.81;86.59;97864.36;1809622;79;20960;-74
2021/10/21 03:02:32;;;;;;;22.80;13.18;;;;;;;1.84;86.37;97859.16;1791028;79;20993;-74
2021/10/21 03:04:59;;;;;;;24.45;14.10;;;;;;;1.85;86.19;97859.59;1767406;80;21769;-75
2021/10/21 03:07:25;;;;;;;22.73;13.58;;;;;;;1.82;85.64;97860.45;1777512;79;20982;-74
2021/10/21 03:09:51;;;;;;;26.75;15.40;;;;;;;1.77;85.39;97853.45;1800500;79;21001;-75
2021/10/21 03:12:18;;;;;;;24.40;14.25;;;;;;;1.69;85.30;97849.09;1786029;80;20998;-74
2021/10/21 03:14:44;;;;;;;27.48;14.10;;;;;;;1.66;85.35;97850.37;1786198;80;21041;-75
2021/10/21 03:17:13;;;;;;;23.00;13.32;;;;;;;1.63;85.13;97849.49;1776558;79;20978;-74
2021/10/21 03:19:39;;;;;;;28.70;14.40;;;;;;;1.61;85.08;97844.26;1774353;80;20986;-75
2021/10/21 03:22:06;;;;;;;23.60;13.43;;;;;;;1.61;85.18;97843.41;1749754;80;21015;-75
2021/10/21 03:24:32;;;;;;;25.25;13.60;;;;;;;1.57;84.99;97838.16;1754003;82;21054;-74
2021/10/21 03:26:59;;;;;;;25.45;13.05;;;;;;;1.53;84.90;97840.31;1753541;82;21026;-74
2021/10/21 03:29:26;;;;;;;24.92;13.08;;;;;;;1.55;85.14;97842.94;1783802;80;20956;-74
2021/10/21 03:31:52;;;;;;;22.87;12.90;;;;;;;1.55;85.06;97830.76;1786320;80;21046;-74
2021/10/21 03:34:18;;;;;;;24.70;13.43;;;;;;;1.56;85.91;97828.58;1786309;80;21003;-74
2021/10/21 03:36:45;;;;;;;27.55;13.55;;;;;;;1.60;85.12;97823.34;1786454;80;21422;-74
2021/10/21 03:39:11;;;;;;;26.75;13.70;;;;;;;1.60;84.96;97818.12;1786346;80;20959;-74
2021/10/21 03:41:38;;;;;;;25.27;13.70;;;;;;;1.58;84.99;97817.69;1741567;80;21070;-74
2021/10/21 03:44:05;;;;;;;21.77;12.70;;;;;;;1.61;85.30;97822.05;1748176;82;21021;-74
2021/10/21 03:46:31;;;;;;;24.02;12.00;;;;;;;1.62;84.88;97826.41;1735951;83;21518;-74
2021/10/21 03:48:57;;;;;;;26.35;13.50;;;;;;;1.62;85.71;97815.95;1747117;80;21048;-75
2021/10/21 03:51:24;;;;;;;21.42;13.25;;;;;;;1.67;85.67;97808.15;1745802;81;21042;-75
2021/10/21 03:53:50;;;;;;;23.27;12.23;;;;;;;1.68;85.29;97812.50;1790683;79;21466;-75
2021/10/21 03:56:17;;;;;;;22.93;12.70;;;;;;;1.67;85.14;97805.08;1771808;81;21048;-75
2021/10/21 03:58:43;;;;;;;25.35;13.80;;;;;;;1.70;85.21;97807.72;1790269;79;20956;-75
2021/10/21 04:01:11;;;;;;;22.35;12.78;;;;;;;1.71;85.28;97802.07;1791426;80;21054;-75
2021/10/21 04:03:39;;;;;;;23.22;13.20;;;;;;;1.69;84.94;97794.22;1766622;80;21051;-74
2021/10/21 04:06:06;;;;;;;22.40;13.05;;;;;;;1.69;84.85;97802.48;1782807;80;21036;-74
2021/10/21 04:08:32;;;;;;;22.42;12.95;;;;;;;1.68;84.73;97800.74;1794377;79;21427;-74
2021/10/21 04:10:59;;;;;;;22.00;12.33;;;;;;;1.69;85.03;97798.14;1762997;81;20999;-74
2021/10/21 04:13:25;;;;;;;23.67;13.15;;;;;;;1.67;85.07;97795.94;1805197;79;20983;-74
2021/10/21 04:15:52;;;;;;;22.58;12.35;;;;;;;1.71;85.37;97787.25;1821232;79;21408;-74
2021/10/21 04:18:18;;;;;;;22.77;12.65;;;;;;;1.73;85.43;97782.03;1813418;79;20964;-74
2021/10/21 04:20:45;;;;;;;24.25;13.30;;;;;;;1.75;85.63;97782.92;1791671;80;21066;-74
2021/10/21 04:23:12;;;;;;;20.82;12.15;;;;;;;1.81;85.96;97776.82;1790324;80;21005;-74
2021/10/21 04:25:38;;;;;;;21.87;13.00;;;;;;;1.86;86.01;97780.31;1786809;79;21060;-75
2021/10/21 04:28:05;;;;;;;20.75;12.88;;;;;;;1.88;85.86;97777.70;1791600;80;21501;-74
2021/10/21 04:30:32;;;;;;;25.62;12.47;;;;;;;1.88;85.99;97775.09;1788240;80;21056;-74
2021/10/21 04:32:58;;;;;;;23.27;12.78;;;;;;;1.92;86.24;97769.89;1769504;80;21006;-74
2021/10/21 04:35:25;;;;;;;22.82;12.33;;;;;;;1.89;85.93;97775.52;1742940;82;21039;-74
2021/10/21 04:37:51;;;;;;;21.48;12.40;;;;;;;1.89;86.03;97768.56;1775819;79;21045;-74
2021/10/21 04:40:18;;;;;;;20.32;12.07;;;;;;;1.84;85.67;97767.23;1756492;82;21530;-74
2021/10/21 04:42:44;;;;;;;22.32;12.33;;;;;;;1.86;86.20;97761.16;1775409;79;20967;-74
2021/10/21 04:45:11;;;;;;;25.52;12.43;;;;;;;1.86;85.91;97759.86;1789418;80;21008;-74
2021/10/21 04:47:37;;;;;;;22.55;13.32;;;;;;;1.81;85.99;97752.87;1789485;80;20967;-75
2021/10/21 04:50:04;;;;;;;22.58;13.13;;;;;;;1.78;85.67;97756.78;1787620;79;21019;-75
2021/10/21 04:52:31;;;;;;;27.87;14.05;;;;;;;1.75;85.49;97752.87;1755531;80;21011;-75
2021/10/21 04:54:58;;;;;;;21.48;12.85;;;;;;;1.70;85.16;97751.55;1764487;81;21413;-75
2021/10/21 04:57:24;;;;;;;26.37;13.93;;;;;;;1.66;85.20;97753.70;1764453;81;20963;-75
2021/10/21 04:59:51;;;;;;;23.77;13.83;;;;;;;1.60;85.16;97753.70;1784695;80;21002;-75
2021/10/21 05:02:17;;;;;;;28.42;14.85;;;;;;;1.58;85.58;97756.30;1740447;81;21538;-75
2021/10/21 05:04:44;;;;;;;25.80;14.35;;;;;;;1.57;85.20;97753.69;1782425;80;20996;-75
2021/10/21 05:07:10;;;;;;;25.52;13.75;;;;;;;1.59;85.17;97751.97;1786941;80;21023;-75
2021/10/21 05:09:36;;;;;;;24.77;14.05;;;;;;;1.58;85.02;97758.91;1786202;80;21011;-75
2021/10/21 05:12:03;;;;;;;23.47;14.83;;;;;;;1.56;84.96;97743.69;1765478;81;21110;-75
2021/10/21 05:14:30;;;;;;;28.27;15.00;;;;;;;1.57;85.17;97753.69;1814090;79;21553;-75
2021/10/21 05:16:56;;;;;;;25.68;13.65;;;;;;;1.57;85.37;97748.45;1818442;79;21040;-75
2021/10/21 05:19:23;;;;;;;24.15;15.45;;;;;;;1.58;85.41;97745.86;1818326;79;21049;-75
2021/10/21 05:21:49;;;;;;;27.05;13.58;;;;;;;1.65;85.31;97749.78;1794968;79;21057;-75
2021/10/21 05:24:16;;;;;;;25.45;14.35;;;;;;;1.67;85.84;97746.30;1793608;79;21001;-75
2021/10/21 05:26:42;;;;;;;25.00;13.65;;;;;;;1.71;85.83;97738.06;1765906;81;21372;-74
2021/10/21 05:29:09;;;;;;;29.42;14.25;;;;;;;1.75;86.07;97743.73;1753868;82;21398;-74
2021/10/21 05:31:35;;;;;;;25.50;13.18;;;;;;;1.84;86.07;97735.88;1763919;80;20993;-74
2021/10/21 05:34:02;;;;;;;22.17;14.38;;;;;;;1.91;86.09;97751.59;1797009;80;21019;-75
2021/10/21 05:36:29;;;;;;;26.62;13.60;;;;;;;2.01;86.65;97752.45;1818350;79;20996;-75
2021/10/21 05:38:57;;;;;;;25.88;13.83;;;;;;;2.11;86.53;97752.47;1818472;79;20988;-74
2021/10/21 05:41:24;;;;;;;27.93;15.20;;;;;;;2.20;86.31;97755.52;1806597;79;21032;-75
2021/10/21 05:43:55;;;;;;;24.45;13.90;;;;;;;2.28;86.48;97753.35;1761866;80;20984;-75
2021/10/21 05:46:22;;;;;;;26.95;15.28;;;;;;;2.32;86.43;97754.64;1765458;80;20972;-74
2021/10/21 05:48:48;;;;;;;29.87;15.08;;;;;;;2.37;86.32;97758.58;1786020;80;21008;-74
2021/10/21 05:51:15;;;;;;;25.95;14.18;;;;;;;2.43;86.15;97761.61;1792921;79;21461;-74
2021/10/21 05:53:42;;;;;;;26.20;14.35;;;;;;;2.48;86.09;97752.89;1778554;80;20957;-74
2021/10/21 05:56:09;;;;;;;24.23;14.58;;;;;;;2.52;85.81;97750.29;1789128;80;21008;-75
2021/10/21 05:58:38;;;;;;;26.57;14.58;;;;;;;2.54;85.82;97752.45;1789035;80;21028;-75
2021/10/21 06:01:04;;;;;;;29.32;16.10;;;;;;;2.54;85.57;97757.69;1789315;79;21004;-74
2021/10/21 06:03:35;;;;;;;31.05;16.27;;;;;;;2.57;85.74;97753.31;1759756;81;21059;-75
2021/10/21 06:05:59;;;;;;;31.65;18.57;;;;;;;2.61;85.61;97754.17;1759860;81;21028;-75
2021/10/21 06:08:25;;;;;;;40.63;18.95;;;;;;;2.64;85.53;97748.95;1759547;81;21082;-75
2021/10/21 06:10:52;;;;;;;35.35;20.10;;;;;;;2.71;85.66;97755.05;1785117;78;21464;-75
2021/10/21 06:13:18;;;;;;;41.88;19.42;;;;;;;2.75;85.92;97760.25;1789511;80;20988;-75
2021/10/21 06:15:45;;;;;;;43.20;20.57;;;;;;;2.84;85.84;97760.70;1788841;80;21047;-75
2021/10/21 06:18:13;;;;;;;46.50;22.32;;;;;;;2.92;86.06;97758.05;1790523;80;21023;-75
2021/10/21 06:20:42;;;;;;;48.48;24.50;;;;;;;2.96;86.16;97751.94;1791929;79;21019;-75
2021/10/21 06:23:09;;;;;;;52.65;26.10;;;;;;;3.02;86.29;97741.44;1789814;80;21612;-75
2021/10/21 06:25:36;;;;;;;44.70;26.27;;;;;;;3.08;85.90;97749.72;1761326;81;21090;-75
2021/10/21 06:28:02;;;;;;;50.75;26.48;;;;;;;3.15;85.96;97756.66;1789459;79;21023;-75
2021/10/21 06:30:29;;;;;;;56.15;28.75;;;;;;;3.20;85.81;97747.47;1785492;80;21031;-74
2021/10/21 06:32:55;;;;;;;53.25;27.82;;;;;;;3.23;85.79;97757.06;1790228;80;20992;-74
2021/10/21 06:35:22;;;;;;;57.55;31.52;;;;;;;3.25;85.94;97752.28;1790516;80;20964;-74
2021/10/21 06:37:50;;;;;;;55.50;31.82;;;;;;;3.25;85.82;97750.08;1790830;80;21426;-74
2021/10/21 06:40:16;;;;;;;70.85;34.85;;;;;;;3.24;86.62;97754.44;1821813;79;21422;-74
2021/10/21 06:42:43;;;;;;;65.78;35.20;;;;;;;3.27;86.06;97749.20;1792657;79;21079;-75
2021/10/21 06:45:13;;;;;;;60.90;33.78;;;;;;;3.27;85.78;97742.66;1822983;78;21521;-74
2021/10/21 06:47:41;;;;;;;83.05;39.45;;;;;;;3.22;85.58;97739.61;1822776;78;21524;-74
2021/10/21 06:50:10;;;;;;;65.67;34.48;;;;;;;3.19;85.68;97750.97;1793530;78;20951;-74
2021/10/21 06:52:38;;;;;;;66.35;34.90;;;;;;;3.18;85.86;97753.16;1793494;79;21666;-74
2021/10/21 06:55:05;;;;;;;70.80;36.48;;;;;;;3.21;85.96;97749.23;1769973;81;21493;-74
2021/10/21 06:57:31;;;;;;;77.70;36.35;;;;;;;3.27;87.19;97750.51;1792557;80;21403;-74
2021/10/21 06:59:58;;;;;;;71.05;34.98;;;;;;;3.28;85.95;97750.08;1794801;78;20972;-75
2021/10/21 07:02:24;;;;;;;67.40;34.75;;;;;;;3.32;86.37;97747.00;1794206;80;20979;-73
2021/10/21 07:04:51;;;;;;;62.62;32.78;;;;;;;3.36;86.28;97746.12;1794389;80;20952;-74
2021/10/21 07:07:17;;;;;;;63.08;33.20;;;;;;;3.39;86.26;97750.90;1794461;80;20975;-74
2021/10/21 07:09:44;;;;;;;62.35;31.62;;;;;;;3.37;85.83;97746.08;1815963;78;20991;-74
2021/10/21 07:12:10;;;;;;;66.02;32.83;;;;;;;3.36;86.31;97739.11;1826844;78;20993;-74
2021/10/21 07:14:37;;;;;;;66.07;33.60;;;;;;;3.39;86.09;97738.22;1826961;78;21069;-74
2021/10/21 07:17:03;;;;;;;71.20;34.67;;;;;;;3.41;86.40;97736.48;1827107;78;20997;-74
2021/10/21 07:19:30;;;;;;;70.20;34.58;;;;;;;3.40;86.25;97732.98;1810253;78;21907;-74
2021/10/21 07:21:56;;;;;;;71.15;34.08;;;;;;;3.47;86.92;97727.27;1794050;79;21021;-74
2021/10/21 07:24:22;;;;;;;67.30;34.75;;;;;;;3.60;87.12;97725.88;1817393;79;21290;-75
2021/10/21 07:26:49;;;;;;;77.10;35.92;;;;;;;3.72;87.17;97732.80;1817379;79;21445;-74
2021/10/21 07:29:15;;;;;;;69.22;35.00;;;;;;;3.88;87.23;97727.91;1794988;78;21229;-74
2021/10/21 07:31:41;;;;;;;54.67;30.95;;;;;;;4.04;87.35;97733.03;1771151;81;21379;-74
2021/10/21 07:34:08;;;;;;;66.65;33.53;;;;;;;4.18;87.62;97734.23;1760335;81;20984;-74
2021/10/21 07:36:34;;;;;;;68.50;33.70;;;;;;;4.25;87.45;97725.44;1736782;80;20933;-74
2021/10/21 07:39:01;;;;;;;69.45;34.85;;;;;;;4.40;87.73;97721.80;1765820;79;21016;-75
2021/10/21 07:41:28;;;;;;;74.07;35.85;;;;;;;4.49;87.86;97720.86;1771393;79;21012;-76
2021/10/21 07:43:55;;;;;;;74.82;35.73;;;;;;;4.61;87.58;97717.25;1794196;80;21491;-76
2021/10/21 07:46:22;;;;;;;78.75;38.45;;;;;;;4.70;87.12;97710.56;1784037;79;20947;-83
2021/10/21 07:48:50;;;;;;;83.97;37.45;;;;;;;4.75;86.39;97711.84;1793875;78;21038;-84
2021/10/21 07:51:18;;;;;;;81.20;37.90;;;;;;;4.79;86.47;97708.30;1788863;78;20989;-84
2021/10/21 07:53:45;;;;;;;81.92;38.85;;;;;;;4.86;86.21;97697.30;1784246;80;21034;-83
2021/10/21 07:56:11;;;;;;;84.85;38.60;;;;;;;4.98;86.11;97698.91;1784698;80;20982;-84
2021/10/21 07:58:38;;;;;;;79.35;37.40;;;;;;;5.07;85.88;97683.01;1777046;79;21057;-86
2021/10/21 08:01:04;;;;;;;116.08;52.27;;;;;;;5.16;85.58;97676.80;1765709;80;21527;-84
2021/10/21 08:03:33;;;;;;;88.82;41.05;;;;;;;5.25;85.54;97687.19;1782822;80;21051;-85
2021/10/21 08:06:01;;;;;;;99.75;41.77;;;;;;;5.36;85.15;97675.19;1794304;79;21434;-86
2021/10/21 08:08:30;;;;;;;99.97;44.70;;;;;;;5.40;84.74;97669.47;1786339;80;21061;-85
2021/10/21 08:10:57;;;;;;;111.15;43.02;;;;;;;5.46;84.68;97668.06;1786559;80;21009;-84
2021/10/21 08:13:24;;;;;;;102.87;43.92;;;;;;;5.53;84.55;97663.13;1786660;79;21024;-83
2021/10/21 08:15:50;;;;;;;93.55;42.17;;;;;;;5.57;83.95;97655.20;1791274;79;21445;-86
2021/10/21 08:18:17;;;;;;;97.25;42.45;;;;;;;5.63;84.29;97659.93;1755253;82;20982;-84
2021/10/21 08:20:44;;;;;;;85.28;39.15;;;;;;;5.73;83.99;97662.42;1754355;81;21068;-77
2021/10/21 08:23:11;;;;;;;82.40;37.95;;;;;;;5.83;83.87;97660.06;1767612;80;20992;-77
2021/10/21 08:25:39;;;;;;;84.10;39.08;;;;;;;5.99;84.01;97664.64;1786428;79;21447;-78
2021/10/21 08:28:06;;;;;;;82.35;40.40;;;;;;;6.16;83.52;97666.14;1785775;80;21545;-78
2021/10/21 08:30:36;;;;;;;82.00;38.60;;;;;;;6.25;82.99;97661.16;1785750;80;21045;-77
2021/10/21 08:33:03;;;;;;;78.62;37.35;;;;;;;6.32;82.74;97649.64;1785629;80;21025;-78
2021/10/21 08:35:30;;;;;;;76.60;37.08;;;;;;;6.35;82.44;97648.25;1800667;79;21009;-77
2021/10/21 08:38:02;;;;;;;68.12;34.23;;;;;;;6.38;82.60;97649.52;1817876;78;21329;-77
2021/10/21 08:40:31;;;;;;;68.17;34.70;;;;;;;6.47;82.71;97650.67;1783134;79;21403;-77
2021/10/21 08:43:04;;;;;;;58.55;30.75;;;;;;;6.58;82.31;97653.55;1781111;79;21073;-77
2021/10/21 08:45:32;;;;;;;61.40;32.88;;;;;;;6.64;82.14;97649.94;1785390;79;21021;-77
2021/10/21 08:48:02;;;;;;;55.17;31.75;;;;;;;6.68;81.53;97647.67;1780474;79;20999;-78
2021/10/21 08:50:33;;;;;;;57.40;30.88;;;;;;;6.68;81.28;97645.89;1798802;79;21021;-78
2021/10/21 08:53:03;;;;;;;50.40;29.10;;;;;;;6.68;81.12;97656.89;1792025;79;21048;-80
2021/10/21 08:55:30;;;;;;;52.53;30.35;;;;;;;6.67;81.07;97657.76;1787933;80;21056;-77
2021/10/21 08:57:57;;;;;;;50.45;29.02;;;;;;;6.64;80.60;97654.73;1794692;79;21121;-78
2021/10/21 09:00:24;;;;;;;53.13;29.82;;;;;;;6.58;80.89;97657.06;1820477;79;21976;-80
2021/10/21 09:03:35;;;;;;;48.28;28.98;;;;;;;6.59;81.38;97653.96;1818162;79;21595;-78
2021/10/21 09:05:40;;;;;;;46.98;27.73;;;;;;;6.65;81.36;97651.23;1763360;79;21000;-81
2021/10/21 09:08:06;;;;;;;45.88;28.17;;;;;;;6.67;80.99;97646.79;1810721;79;21001;-80
2021/10/21 09:10:49;;;;;;;45.10;27.10;;;;;;;6.69;81.18;97639.71;1788549;79;20971;-80
2021/10/21 09:13:25;;;;;;;45.35;27.62;;;;;;;6.76;81.08;97643.56;1775989;79;21498;-82
2021/10/21 09:15:56;;;;;;;47.13;27.27;;;;;;;6.82;81.10;97633.75;1809711;79;21093;-80
2021/10/21 09:18:26;;;;;;;48.80;28.65;;;;;;;6.90;81.12;97638.89;1818453;79;21005;-80
2021/10/21 09:20:53;;;;;;;52.83;29.27;;;;;;;6.97;81.04;97631.70;1817857;79;21081;-79
2021/10/21 09:23:28;;;;;;;53.42;30.50;;;;;;;7.06;80.89;97623.60;1810792;79;21472;-80
2021/10/21 09:25:58;;;;;;;;;;;;;;;7.16;80.81;97624.72;1790588;80;21017;-80
2021/10/21 09:28:28;;;;;;;39.30;25.88;;;;;;;7.25;81.14;97624.09;1771167;81;20133;-81
2021/10/21 09:31:08;;;;;;;42.33;24.70;;;;;;;7.38;81.38;97623.36;1773038;80;20987;-80
2021/10/21 09:33:57;;;;;;;51.55;28.52;;;;;;;7.50;81.67;97614.30;1758001;80;21524;-81
2021/10/21 09:36:25;;;;;;;45.20;26.48;;;;;;;7.65;81.15;97608.25;1775707;79;21078;-80
2021/10/21 09:38:57;;;;;;;48.48;29.70;;;;;;;7.78;80.96;97606.17;1772107;80;20997;-78
2021/10/21 09:41:34;;;;;;;51.88;29.67;;;;;;;7.91;80.55;97601.02;1772853;81;21064;-79
2021/10/21 09:44:06;;;;;;;49.27;30.57;;;;;;;8.03;80.54;97589.28;1774629;81;21210;-77
2021/10/21 09:46:41;;;;;;;48.83;27.52;;;;;;;8.20;80.45;97585.32;1779488;79;21040;-81
2021/10/21 09:49:28;;;;;;;48.73;28.07;;;;;;;8.38;80.17;97575.19;1806666;79;21001;-81
2021/10/21 09:51:52;;;;;;;50.48;27.75;;;;;;;8.62;79.55;97578.05;1783651;79;21057;-81
2021/10/21 09:54:19;;;;;;;45.67;27.93;;;;;;;8.81;78.63;97577.94;1759917;81;21120;-81
2021/10/21 09:57:00;;;;;;;49.70;28.65;;;;;;;8.98;77.82;97576.11;1759635;81;20974;-83
2021/10/21 09:59:34;;;;;;;55.60;32.00;;;;;;;9.13;77.51;97579.21;1758560;81;21061;-81
2021/10/21 10:02:22;;;;;;;58.60;32.55;;;;;;;9.30;77.57;97576.05;1761586;81;22045;-81
2021/10/21 10:04:53;;;;;;;52.80;30.90;;;;;;;9.50;77.48;97575.88;1764918;80;20998;-82
2021/10/21 10:07:21;;;;;;;53.78;33.00;;;;;;;9.68;77.17;97569.59;1735314;83;21019;-80
2021/10/21 10:09:48;;;;;;;52.48;30.17;;;;;;;9.84;76.15;97562.86;1755323;80;21400;-81
2021/10/21 10:12:16;;;;;;;54.67;32.10;;;;;;;10.01;75.98;97554.83;1774877;80;20932;-82
2021/10/21 10:14:46;;;;;;;58.38;32.80;;;;;;;10.16;75.60;97554.28;1796009;80;21003;-82
2021/10/21 10:17:14;;;;;;;59.95;32.67;;;;;;;10.33;75.08;97535.59;1759661;81;21045;-83
2021/10/21 10:19:45;;;;;;;51.13;30.50;;;;;;;10.50;73.90;97544.29;1768298;81;21033;-82
2021/10/21 10:22:25;;;;;;;47.17;29.35;;;;;;;10.73;72.22;97541.70;1767657;81;20994;-82
2021/10/21 10:24:54;;;;;;;47.95;28.98;;;;;;;10.89;70.01;97528.73;1708140;84;21013;-83
2021/10/21 10:27:30;;;;;;;48.08;30.27;;;;;;;11.16;70.20;97521.49;1769439;80;20986;-83
2021/10/21 10:30:01;;;;;;;43.85;28.98;;;;;;;11.67;68.84;97513.25;1740843;81;21114;-83
2021/10/21 10:32:35;;;;;;;41.25;26.85;;;;;;;12.77;69.83;97513.41;1763027;81;21027;-85
2021/10/21 10:35:06;;;;;;;48.13;30.62;;;;;;;14.08;65.22;97504.47;1740745;82;21058;-85
2021/10/21 10:37:42;;;;;;;35.70;25.72;;;;;;;15.29;65.10;97490.45;1775131;81;21437;-84
2021/10/21 10:40:12;;;;;;;35.45;26.17;;;;;;;16.20;62.89;97481.61;1756244;80;20977;-83
2021/10/21 10:42:45;;;;;;;38.40;27.90;;;;;;;16.93;60.84;97480.27;1782829;80;21067;-83
2021/10/21 10:45:13;;;;;;;33.55;25.40;;;;;;;17.85;58.49;97472.98;1783766;80;21012;-86
2021/10/21 10:47:50;;;;;;;34.95;26.90;;;;;;;18.77;57.63;97457.80;1773939;80;21030;-84
2021/10/21 10:50:29;;;;;;;31.52;24.87;;;;;;;19.49;52.81;97441.41;1776962;80;21007;-84
2021/10/21 10:53:00;;;;;;;29.52;24.15;;;;;;;20.24;54.21;97438.46;1777468;79;21440;-83
2021/10/21 10:55:47;;;;;;;31.27;25.10;;;;;;;21.06;49.09;97427.09;1741924;82;21467;-85
2021/10/21 10:58:27;;;;;;;35.85;26.10;;;;;;;21.86;47.40;97424.98;1789268;80;21005;-83
2021/10/21 11:00:58;;;;;;;33.50;26.42;;;;;;;22.18;47.79;97415.59;1789173;80;21029;-82
2021/10/21 11:03:41;;;;;;;33.55;26.20;;;;;;;22.25;44.85;97406.82;1788793;80;21005;-82
2021/10/21 11:06:11;;;;;;;33.58;26.35;;;;;;;22.01;41.57;97393.63;1772513;81;20965;-82
2021/10/21 11:09:08;;;;;;;31.52;25.90;;;;;;;22.22;42.76;97393.58;1753612;81;21131;-83
2021/10/21 11:11:44;;;;;;;33.35;27.67;;;;;;;22.56;45.17;97395.20;1770173;81;22176;-83
2021/10/21 11:14:16;;;;;;;34.90;27.40;;;;;;;22.69;42.93;97393.61;1749612;80;21065;-84
2021/10/21 11:16:52;;;;;;;36.13;27.55;;;;;;;23.22;41.46;97379.44;1753246;81;21022;-83
2021/10/21 11:19:47;;;;;;;34.85;26.42;;;;;;;23.22;41.46;97379.44;1773271;80;21100;-83
2021/10/21 11:22:25;;;;;;;31.97;26.70;;;;;;;24.07;42.03;97360.36;1775134;79;20977;-83
2021/10/21 11:24:57;;;;;;;35.13;28.32;;;;;;;24.07;42.03;97360.36;1765763;79;20998;-82
2021/10/21 11:27:37;;;;;;;37.28;27.93;;;;;;;24.19;39.44;97351.11;1775362;81;21089;-83
2021/10/21 11:30:14;;;;;;;34.53;25.80;;;;;;;23.54;40.57;97355.33;1775304;81;21277;-83